sensor_id;sensor_type;location;lat;lon;timestamp;P1;durP1;ratioP1;P2;durP2;ratioP2
12970;SDS011;6550;48.650;8.774;2023-11-21T00:00:59;2.47;;;2.07;;
12970;SDS011;6550;48.650;8.774;2023-11-21T00:03:27;3.67;;;2.45;;
12970;SDS011;6550;48.650;8.774;2023-11-21T00:05:55;3.83;;;2.30;;
12970;SDS011;6550;48.650;8.774;2023-11-21T00:08:21;3.30;;;2.27;;
12970;SDS011;6550;48.650;8.774;2023-11-21T00:10:48;3.00;;;1.90;;
12970;SDS011;6550;48.650;8.774;2023-11-21T00:13:15;3.57;;;2.00;;
12970;SDS011;6550;48.650;8.774;2023-11-21T00:15:44;2.47;;;2.07;;
12970;SDS011;6550;48.650;8.774;2023-11-21T00:18:13;2.43;;;1.87;;
12970;SDS011;6550;48.650;8.774;2023-11-21T00:20:42;2.73;;;1.97;;
12970;SDS011;6550;48.650;8.774;2023-11-21T00:23:09;2.10;;;1.90;;
12970;SDS011;6550;48.650;8.774;2023-11-21T00:25:37;2.40;;;1.77;;
12970;SDS011;6550;48.650;8.774;2023-11-21T00:28:03;3.13;;;1.90;;
12970;SDS011;6550;48.650;8.774;2023-11-21T00:30:32;3.60;;;1.93;;
12970;SDS011;6550;48.650;8.774;2023-11-21T00:32:59;2.17;;;1.80;;
12970;SDS011;6550;48.650;8.774;2023-11-21T00:35:26;3.00;;;1.90;;
12970;SDS011;6550;48.650;8.774;2023-11-21T00:37:55;2.57;;;1.80;;
12970;SDS011;6550;48.650;8.774;2023-11-21T00:40:24;2.47;;;1.87;;
12970;SDS011;6550;48.650;8.774;2023-11-21T00:42:51;2.93;;;1.80;;
12970;SDS011;6550;48.650;8.774;2023-11-21T00:45:22;1.80;;;1.60;;
12970;SDS011;6550;48.650;8.774;2023-11-21T00:47:49;2.03;;;1.37;;
12970;SDS011;6550;48.650;8.774;2023-11-21T00:50:18;2.47;;;1.80;;
12970;SDS011;6550;48.650;8.774;2023-11-21T00:52:45;2.10;;;1.80;;
12970;SDS011;6550;48.650;8.774;2023-11-21T00:55:14;2.83;;;1.70;;
12970;SDS011;6550;48.650;8.774;2023-11-21T00:57:41;1.67;;;1.20;;
12970;SDS011;6550;48.650;8.774;2023-11-21T01:00:10;3.50;;;1.60;;
12970;SDS011;6550;48.650;8.774;2023-11-21T01:02:43;2.37;;;1.63;;
12970;SDS011;6550;48.650;8.774;2023-11-21T01:05:16;2.40;;;1.47;;
12970;SDS011;6550;48.650;8.774;2023-11-21T01:07:43;2.10;;;1.40;;
12970;SDS011;6550;48.650;8.774;2023-11-21T01:10:12;1.47;;;1.37;;
12970;SDS011;6550;48.650;8.774;2023-11-21T01:12:42;1.73;;;1.50;;
12970;SDS011;6550;48.650;8.774;2023-11-21T01:15:09;1.30;;;1.20;;
12970;SDS011;6550;48.650;8.774;2023-11-21T01:17:41;1.63;;;1.53;;
12970;SDS011;6550;48.650;8.774;2023-11-21T01:20:09;1.80;;;1.27;;
12970;SDS011;6550;48.650;8.774;2023-11-21T01:22:40;3.33;;;1.30;;
12970;SDS011;6550;48.650;8.774;2023-11-21T01:25:09;1.50;;;1.20;;
12970;SDS011;6550;48.650;8.774;2023-11-21T01:27:37;3.67;;;1.20;;
12970;SDS011;6550;48.650;8.774;2023-11-21T01:30:04;1.73;;;1.30;;
12970;SDS011;6550;48.650;8.774;2023-11-21T01:32:33;1.10;;;1.00;;
12970;SDS011;6550;48.650;8.774;2023-11-21T01:35:00;1.60;;;1.23;;
12970;SDS011;6550;48.650;8.774;2023-11-21T01:37:27;1.13;;;0.93;;
12970;SDS011;6550;48.650;8.774;2023-11-21T01:39:54;1.30;;;1.20;;
12970;SDS011;6550;48.650;8.774;2023-11-21T01:42:23;3.23;;;1.00;;
12970;SDS011;6550;48.650;8.774;2023-11-21T01:44:50;1.43;;;1.23;;
12970;SDS011;6550;48.650;8.774;2023-11-21T01:47:17;1.93;;;1.20;;
12970;SDS011;6550;48.650;8.774;2023-11-21T01:49:44;1.20;;;1.10;;
12970;SDS011;6550;48.650;8.774;2023-11-21T01:52:12;1.73;;;1.20;;
12970;SDS011;6550;48.650;8.774;2023-11-21T01:54:41;0.80;;;0.80;;
12970;SDS011;6550;48.650;8.774;2023-11-21T01:57:08;1.17;;;1.00;;
12970;SDS011;6550;48.650;8.774;2023-11-21T01:59:38;2.80;;;1.27;;
12970;SDS011;6550;48.650;8.774;2023-11-21T02:02:10;3.23;;;0.97;;
12970;SDS011;6550;48.650;8.774;2023-11-21T02:04:37;1.93;;;1.17;;
12970;SDS011;6550;48.650;8.774;2023-11-21T02:07:07;1.60;;;0.67;;
12970;SDS011;6550;48.650;8.774;2023-11-21T02:09:33;2.57;;;1.00;;
12970;SDS011;6550;48.650;8.774;2023-11-21T02:12:00;1.97;;;0.97;;
12970;SDS011;6550;48.650;8.774;2023-11-21T02:14:30;2.90;;;1.07;;
12970;SDS011;6550;48.650;8.774;2023-11-21T02:16:58;1.00;;;0.90;;
12970;SDS011;6550;48.650;8.774;2023-11-21T02:19:24;2.80;;;0.90;;
12970;SDS011;6550;48.650;8.774;2023-11-21T02:21:59;0.97;;;0.97;;
12970;SDS011;6550;48.650;8.774;2023-11-21T02:24:29;0.90;;;0.90;;
12970;SDS011;6550;48.650;8.774;2023-11-21T02:27:01;1.60;;;0.90;;
12970;SDS011;6550;48.650;8.774;2023-11-21T02:29:28;0.73;;;0.73;;
12970;SDS011;6550;48.650;8.774;2023-11-21T02:31:59;1.27;;;0.80;;
12970;SDS011;6550;48.650;8.774;2023-11-21T02:34:26;1.60;;;0.70;;
12970;SDS011;6550;48.650;8.774;2023-11-21T02:36:53;1.00;;;0.80;;
12970;SDS011;6550;48.650;8.774;2023-11-21T02:39:20;1.17;;;0.90;;
12970;SDS011;6550;48.650;8.774;2023-11-21T02:41:48;0.87;;;0.87;;
12970;SDS011;6550;48.650;8.774;2023-11-21T02:44:17;0.77;;;0.70;;
12970;SDS011;6550;48.650;8.774;2023-11-21T02:46:46;1.20;;;0.90;;
12970;SDS011;6550;48.650;8.774;2023-11-21T02:49:15;3.37;;;0.80;;
12970;SDS011;6550;48.650;8.774;2023-11-21T02:51:47;0.50;;;0.50;;
12970;SDS011;6550;48.650;8.774;2023-11-21T02:54:13;1.83;;;0.80;;
12970;SDS011;6550;48.650;8.774;2023-11-21T02:56:45;2.67;;;0.60;;
12970;SDS011;6550;48.650;8.774;2023-11-21T02:59:16;2.70;;;0.60;;
12970;SDS011;6550;48.650;8.774;2023-11-21T03:01:43;0.67;;;0.57;;
12970;SDS011;6550;48.650;8.774;2023-11-21T03:04:10;0.67;;;0.67;;
12970;SDS011;6550;48.650;8.774;2023-11-21T03:06:37;0.83;;;0.67;;
12970;SDS011;6550;48.650;8.774;2023-11-21T03:09:06;0.47;;;0.47;;
12970;SDS011;6550;48.650;8.774;2023-11-21T03:11:32;0.53;;;0.53;;
12970;SDS011;6550;48.650;8.774;2023-11-21T03:14:02;4.20;;;0.90;;
12970;SDS011;6550;48.650;8.774;2023-11-21T03:16:28;1.07;;;0.60;;
12970;SDS011;6550;48.650;8.774;2023-11-21T03:18:55;1.37;;;0.70;;
12970;SDS011;6550;48.650;8.774;2023-11-21T03:21:22;0.90;;;0.63;;
12970;SDS011;6550;48.650;8.774;2023-11-21T03:23:49;0.70;;;0.70;;
12970;SDS011;6550;48.650;8.774;2023-11-21T03:26:16;2.20;;;0.60;;
12970;SDS011;6550;48.650;8.774;2023-11-21T03:28:47;0.83;;;0.53;;
12970;SDS011;6550;48.650;8.774;2023-11-21T03:31:15;0.70;;;0.60;;
12970;SDS011;6550;48.650;8.774;2023-11-21T03:33:45;0.50;;;0.50;;
12970;SDS011;6550;48.650;8.774;2023-11-21T03:36:12;0.70;;;0.50;;
12970;SDS011;6550;48.650;8.774;2023-11-21T03:38:39;0.57;;;0.50;;
12970;SDS011;6550;48.650;8.774;2023-11-21T03:41:05;0.50;;;0.50;;
12970;SDS011;6550;48.650;8.774;2023-11-21T03:43:32;0.70;;;0.70;;
12970;SDS011;6550;48.650;8.774;2023-11-21T03:46:02;1.33;;;0.60;;
12970;SDS011;6550;48.650;8.774;2023-11-21T03:48:31;0.63;;;0.60;;
12970;SDS011;6550;48.650;8.774;2023-11-21T03:50:59;0.67;;;0.67;;
12970;SDS011;6550;48.650;8.774;2023-11-21T03:53:26;2.10;;;0.60;;
12970;SDS011;6550;48.650;8.774;2023-11-21T03:55:57;0.50;;;0.50;;
12970;SDS011;6550;48.650;8.774;2023-11-21T03:58:24;1.43;;;0.50;;
12970;SDS011;6550;48.650;8.774;2023-11-21T04:00:53;1.70;;;0.70;;
12970;SDS011;6550;48.650;8.774;2023-11-21T04:03:20;0.40;;;0.40;;
12970;SDS011;6550;48.650;8.774;2023-11-21T04:05:47;0.50;;;0.50;;
12970;SDS011;6550;48.650;8.774;2023-11-21T04:08:16;0.63;;;0.50;;
12970;SDS011;6550;48.650;8.774;2023-11-21T04:10:45;0.50;;;0.50;;
12970;SDS011;6550;48.650;8.774;2023-11-21T04:13:19;0.50;;;0.50;;
12970;SDS011;6550;48.650;8.774;2023-11-21T04:15:46;0.70;;;0.70;;
12970;SDS011;6550;48.650;8.774;2023-11-21T04:18:13;0.82;;;0.50;;
12970;SDS011;6550;48.650;8.774;2023-11-21T04:20:42;0.40;;;0.40;;
12970;SDS011;6550;48.650;8.774;2023-11-21T04:23:13;0.50;;;0.40;;
12970;SDS011;6550;48.650;8.774;2023-11-21T04:25:41;0.50;;;0.50;;
12970;SDS011;6550;48.650;8.774;2023-11-21T04:28:10;1.63;;;0.70;;
12970;SDS011;6550;48.650;8.774;2023-11-21T04:30:36;1.50;;;0.60;;
12970;SDS011;6550;48.650;8.774;2023-11-21T04:33:05;1.03;;;0.70;;
12970;SDS011;6550;48.650;8.774;2023-11-21T04:35:34;0.83;;;0.70;;
12970;SDS011;6550;48.650;8.774;2023-11-21T04:38:00;3.67;;;0.80;;
12970;SDS011;6550;48.650;8.774;2023-11-21T04:40:27;3.00;;;0.57;;
12970;SDS011;6550;48.650;8.774;2023-11-21T04:42:54;0.67;;;0.60;;
12970;SDS011;6550;48.650;8.774;2023-11-21T04:45:25;1.40;;;0.50;;
12970;SDS011;6550;48.650;8.774;2023-11-21T04:47:54;0.87;;;0.70;;
12970;SDS011;6550;48.650;8.774;2023-11-21T04:50:24;0.90;;;0.40;;
12970;SDS011;6550;48.650;8.774;2023-11-21T04:52:53;0.53;;;0.53;;
12970;SDS011;6550;48.650;8.774;2023-11-21T04:55:22;0.60;;;0.53;;
12970;SDS011;6550;48.650;8.774;2023-11-21T04:57:54;1.33;;;0.70;;
12970;SDS011;6550;48.650;8.774;2023-11-21T05:00:20;1.20;;;0.60;;
12970;SDS011;6550;48.650;8.774;2023-11-21T05:02:50;1.03;;;0.80;;
12970;SDS011;6550;48.650;8.774;2023-11-21T05:05:19;1.93;;;0.90;;
12970;SDS011;6550;48.650;8.774;2023-11-21T05:07:48;1.80;;;0.70;;
12970;SDS011;6550;48.650;8.774;2023-11-21T05:10:15;1.50;;;0.83;;
12970;SDS011;6550;48.650;8.774;2023-11-21T05:12:48;2.87;;;0.67;;
12970;SDS011;6550;48.650;8.774;2023-11-21T05:15:16;1.17;;;0.97;;
12970;SDS011;6550;48.650;8.774;2023-11-21T05:17:46;1.17;;;0.83;;
12970;SDS011;6550;48.650;8.774;2023-11-21T05:20:14;2.43;;;0.80;;
12970;SDS011;6550;48.650;8.774;2023-11-21T05:22:49;1.17;;;0.60;;
12970;SDS011;6550;48.650;8.774;2023-11-21T05:25:16;1.33;;;0.60;;
12970;SDS011;6550;48.650;8.774;2023-11-21T05:27:46;1.63;;;0.90;;
12970;SDS011;6550;48.650;8.774;2023-11-21T05:30:13;1.07;;;0.90;;
12970;SDS011;6550;48.650;8.774;2023-11-21T05:32:40;3.27;;;1.00;;
12970;SDS011;6550;48.650;8.774;2023-11-21T05:35:10;0.70;;;0.70;;
12970;SDS011;6550;48.650;8.774;2023-11-21T05:37:43;1.00;;;0.70;;
12970;SDS011;6550;48.650;8.774;2023-11-21T05:40:11;1.47;;;0.93;;
12970;SDS011;6550;48.650;8.774;2023-11-21T05:42:39;2.37;;;1.60;;
12970;SDS011;6550;48.650;8.774;2023-11-21T05:45:07;1.63;;;1.53;;
12970;SDS011;6550;48.650;8.774;2023-11-21T05:47:42;2.30;;;1.90;;
12970;SDS011;6550;48.650;8.774;2023-11-21T05:50:10;3.13;;;2.00;;
12970;SDS011;6550;48.650;8.774;2023-11-21T05:52:43;2.60;;;2.03;;
12970;SDS011;6550;48.650;8.774;2023-11-21T05:55:14;1.73;;;1.63;;
12970;SDS011;6550;48.650;8.774;2023-11-21T05:57:41;2.50;;;1.80;;
12970;SDS011;6550;48.650;8.774;2023-11-21T06:00:11;1.70;;;1.60;;
12970;SDS011;6550;48.650;8.774;2023-11-21T06:02:52;1.70;;;1.50;;
12970;SDS011;6550;48.650;8.774;2023-11-21T06:05:22;1.80;;;1.70;;
12970;SDS011;6550;48.650;8.774;2023-11-21T06:07:51;1.93;;;1.60;;
12970;SDS011;6550;48.650;8.774;2023-11-21T06:10:20;1.95;;;1.73;;
12970;SDS011;6550;48.650;8.774;2023-11-21T06:12:53;1.93;;;1.40;;
12970;SDS011;6550;48.650;8.774;2023-11-21T06:15:27;1.80;;;1.50;;
12970;SDS011;6550;48.650;8.774;2023-11-21T06:17:57;2.53;;;1.60;;
12970;SDS011;6550;48.650;8.774;2023-11-21T06:20:26;1.47;;;1.37;;
12970;SDS011;6550;48.650;8.774;2023-11-21T06:22:53;1.83;;;1.50;;
12970;SDS011;6550;48.650;8.774;2023-11-21T06:25:23;3.43;;;1.47;;
12970;SDS011;6550;48.650;8.774;2023-11-21T06:27:50;1.77;;;1.67;;
12970;SDS011;6550;48.650;8.774;2023-11-21T06:30:20;1.50;;;1.40;;
12970;SDS011;6550;48.650;8.774;2023-11-21T06:32:47;1.30;;;1.20;;
12970;SDS011;6550;48.650;8.774;2023-11-21T06:35:17;1.40;;;1.30;;
12970;SDS011;6550;48.650;8.774;2023-11-21T06:37:44;4.33;;;1.27;;
12970;SDS011;6550;48.650;8.774;2023-11-21T06:40:18;4.53;;;1.50;;
12970;SDS011;6550;48.650;8.774;2023-11-21T06:42:46;1.50;;;1.40;;
12970;SDS011;6550;48.650;8.774;2023-11-21T06:45:16;3.60;;;1.53;;
12970;SDS011;6550;48.650;8.774;2023-11-21T06:47:43;4.10;;;1.50;;
12970;SDS011;6550;48.650;8.774;2023-11-21T06:50:11;1.43;;;1.33;;
12970;SDS011;6550;48.650;8.774;2023-11-21T06:52:38;1.83;;;1.20;;
12970;SDS011;6550;48.650;8.774;2023-11-21T06:55:05;1.17;;;1.10;;
12970;SDS011;6550;48.650;8.774;2023-11-21T06:57:36;1.70;;;1.33;;
12970;SDS011;6550;48.650;8.774;2023-11-21T07:00:04;1.30;;;1.20;;
12970;SDS011;6550;48.650;8.774;2023-11-21T07:02:32;3.87;;;1.30;;
12970;SDS011;6550;48.650;8.774;2023-11-21T07:04:59;2.73;;;1.27;;
12970;SDS011;6550;48.650;8.774;2023-11-21T07:07:27;2.53;;;1.10;;
12970;SDS011;6550;48.650;8.774;2023-11-21T07:09:54;2.10;;;1.10;;
12970;SDS011;6550;48.650;8.774;2023-11-21T07:12:20;1.00;;;0.97;;
12970;SDS011;6550;48.650;8.774;2023-11-21T07:14:50;3.53;;;1.30;;
12970;SDS011;6550;48.650;8.774;2023-11-21T07:17:16;1.33;;;1.20;;
12970;SDS011;6550;48.650;8.774;2023-11-21T07:19:43;1.70;;;1.10;;
12970;SDS011;6550;48.650;8.774;2023-11-21T07:22:11;2.53;;;1.47;;
12970;SDS011;6550;48.650;8.774;2023-11-21T07:24:39;1.63;;;1.20;;
12970;SDS011;6550;48.650;8.774;2023-11-21T07:27:06;2.97;;;1.30;;
12970;SDS011;6550;48.650;8.774;2023-11-21T07:29:34;3.00;;;1.13;;
12970;SDS011;6550;48.650;8.774;2023-11-21T07:32:01;4.07;;;0.97;;
12970;SDS011;6550;48.650;8.774;2023-11-21T07:34:31;2.60;;;1.20;;
12970;SDS011;6550;48.650;8.774;2023-11-21T07:36:58;1.83;;;0.90;;
12970;SDS011;6550;48.650;8.774;2023-11-21T07:39:25;1.10;;;0.80;;
12970;SDS011;6550;48.650;8.774;2023-11-21T07:41:52;1.30;;;1.20;;
12970;SDS011;6550;48.650;8.774;2023-11-21T07:44:21;2.53;;;1.10;;
12970;SDS011;6550;48.650;8.774;2023-11-21T07:46:48;1.30;;;1.20;;
12970;SDS011;6550;48.650;8.774;2023-11-21T07:49:24;1.37;;;1.00;;
12970;SDS011;6550;48.650;8.774;2023-11-21T07:51:51;1.53;;;1.10;;
12970;SDS011;6550;48.650;8.774;2023-11-21T07:54:20;1.43;;;1.33;;
12970;SDS011;6550;48.650;8.774;2023-11-21T07:56:47;3.37;;;1.50;;
12970;SDS011;6550;48.650;8.774;2023-11-21T07:59:16;1.80;;;1.50;;
12970;SDS011;6550;48.650;8.774;2023-11-21T08:01:44;2.43;;;1.50;;
12970;SDS011;6550;48.650;8.774;2023-11-21T08:04:12;3.63;;;1.77;;
12970;SDS011;6550;48.650;8.774;2023-11-21T08:06:39;2.60;;;1.90;;
12970;SDS011;6550;48.650;8.774;2023-11-21T08:09:08;3.90;;;1.90;;
12970;SDS011;6550;48.650;8.774;2023-11-21T08:11:35;2.13;;;1.67;;
12970;SDS011;6550;48.650;8.774;2023-11-21T08:14:03;1.70;;;1.60;;
12970;SDS011;6550;48.650;8.774;2023-11-21T08:16:33;1.70;;;1.50;;
12970;SDS011;6550;48.650;8.774;2023-11-21T08:19:02;3.67;;;1.50;;
12970;SDS011;6550;48.650;8.774;2023-11-21T08:21:29;3.10;;;1.40;;
12970;SDS011;6550;48.650;8.774;2023-11-21T08:23:56;1.57;;;1.10;;
12970;SDS011;6550;48.650;8.774;2023-11-21T08:26:25;1.43;;;1.33;;
12970;SDS011;6550;48.650;8.774;2023-11-21T08:28:52;1.52;;;1.42;;
12970;SDS011;6550;48.650;8.774;2023-11-21T08:31:25;1.60;;;1.33;;
12970;SDS011;6550;48.650;8.774;2023-11-21T08:33:55;3.37;;;1.20;;
12970;SDS011;6550;48.650;8.774;2023-11-21T08:36:25;1.53;;;1.43;;
12970;SDS011;6550;48.650;8.774;2023-11-21T08:38:52;1.53;;;1.43;;
12970;SDS011;6550;48.650;8.774;2023-11-21T08:41:23;2.07;;;1.70;;
12970;SDS011;6550;48.650;8.774;2023-11-21T08:43:50;1.50;;;1.40;;
12970;SDS011;6550;48.650;8.774;2023-11-21T08:46:18;1.83;;;1.73;;
12970;SDS011;6550;48.650;8.774;2023-11-21T08:48:47;1.50;;;1.40;;
12970;SDS011;6550;48.650;8.774;2023-11-21T08:51:17;3.23;;;1.33;;
12970;SDS011;6550;48.650;8.774;2023-11-21T08:53:46;1.70;;;1.60;;
12970;SDS011;6550;48.650;8.774;2023-11-21T08:56:17;1.67;;;1.50;;
12970;SDS011;6550;48.650;8.774;2023-11-21T08:58:50;1.80;;;1.65;;
12970;SDS011;6550;48.650;8.774;2023-11-21T09:01:17;1.80;;;1.70;;
12970;SDS011;6550;48.650;8.774;2023-11-21T09:03:44;3.87;;;1.63;;
12970;SDS011;6550;48.650;8.774;2023-11-21T09:06:11;1.70;;;1.60;;
12970;SDS011;6550;48.650;8.774;2023-11-21T09:08:38;1.67;;;1.50;;
12970;SDS011;6550;48.650;8.774;2023-11-21T09:11:08;1.77;;;1.67;;
12970;SDS011;6550;48.650;8.774;2023-11-21T09:13:37;1.80;;;1.70;;
12970;SDS011;6550;48.650;8.774;2023-11-21T09:16:04;3.10;;;1.93;;
12970;SDS011;6550;48.650;8.774;2023-11-21T09:18:32;1.63;;;1.47;;
12970;SDS011;6550;48.650;8.774;2023-11-21T09:20:59;1.77;;;1.67;;
12970;SDS011;6550;48.650;8.774;2023-11-21T09:23:28;2.00;;;1.80;;
12970;SDS011;6550;48.650;8.774;2023-11-21T09:25:54;3.58;;;1.70;;
12970;SDS011;6550;48.650;8.774;2023-11-21T09:28:23;3.63;;;1.67;;
12970;SDS011;6550;48.650;8.774;2023-11-21T09:30:53;1.50;;;1.40;;
12970;SDS011;6550;48.650;8.774;2023-11-21T09:33:20;1.97;;;1.73;;
12970;SDS011;6550;48.650;8.774;2023-11-21T09:35:48;2.13;;;2.00;;
12970;SDS011;6550;48.650;8.774;2023-11-21T09:38:17;1.87;;;1.77;;
12970;SDS011;6550;48.650;8.774;2023-11-21T09:40:46;2.00;;;1.80;;
12970;SDS011;6550;48.650;8.774;2023-11-21T09:43:15;4.17;;;1.73;;
12970;SDS011;6550;48.650;8.774;2023-11-21T09:45:47;2.47;;;1.80;;
12970;SDS011;6550;48.650;8.774;2023-11-21T09:48:24;1.87;;;1.77;;
12970;SDS011;6550;48.650;8.774;2023-11-21T09:50:54;3.37;;;1.90;;
12970;SDS011;6550;48.650;8.774;2023-11-21T09:53:23;1.90;;;1.80;;
12970;SDS011;6550;48.650;8.774;2023-11-21T09:55:53;3.00;;;2.00;;
12970;SDS011;6550;48.650;8.774;2023-11-21T09:58:23;2.07;;;1.60;;
12970;SDS011;6550;48.650;8.774;2023-11-21T10:00:53;1.80;;;1.70;;
12970;SDS011;6550;48.650;8.774;2023-11-21T10:03:23;1.60;;;1.50;;
12970;SDS011;6550;48.650;8.774;2023-11-21T10:05:50;1.53;;;1.43;;
12970;SDS011;6550;48.650;8.774;2023-11-21T10:08:22;3.67;;;1.50;;
12970;SDS011;6550;48.650;8.774;2023-11-21T10:11:11;1.70;;;1.60;;
12970;SDS011;6550;48.650;8.774;2023-11-21T10:13:40;3.10;;;1.70;;
12970;SDS011;6550;48.650;8.774;2023-11-21T10:16:08;2.03;;;1.70;;
12970;SDS011;6550;48.650;8.774;2023-11-21T10:18:38;1.47;;;1.37;;
12970;SDS011;6550;48.650;8.774;2023-11-21T10:21:08;1.50;;;1.40;;
12970;SDS011;6550;48.650;8.774;2023-11-21T10:23:37;1.70;;;1.60;;
12970;SDS011;6550;48.650;8.774;2023-11-21T10:26:04;1.80;;;1.67;;
12970;SDS011;6550;48.650;8.774;2023-11-21T10:28:57;1.47;;;1.30;;
12970;SDS011;6550;48.650;8.774;2023-11-21T10:31:32;1.33;;;1.23;;
12970;SDS011;6550;48.650;8.774;2023-11-21T10:34:13;1.50;;;1.27;;
12970;SDS011;6550;48.650;8.774;2023-11-21T10:36:44;2.27;;;1.33;;
12970;SDS011;6550;48.650;8.774;2023-11-21T10:39:18;2.20;;;1.27;;
12970;SDS011;6550;48.650;8.774;2023-11-21T10:41:46;1.50;;;1.40;;
12970;SDS011;6550;48.650;8.774;2023-11-21T10:44:17;1.50;;;1.20;;
12970;SDS011;6550;48.650;8.774;2023-11-21T10:46:51;1.40;;;1.30;;
12970;SDS011;6550;48.650;8.774;2023-11-21T10:49:27;1.52;;;1.42;;
12970;SDS011;6550;48.650;8.774;2023-11-21T10:51:54;1.30;;;1.20;;
12970;SDS011;6550;48.650;8.774;2023-11-21T10:54:24;2.30;;;1.33;;
12970;SDS011;6550;48.650;8.774;2023-11-21T10:57:01;1.40;;;1.30;;
12970;SDS011;6550;48.650;8.774;2023-11-21T10:59:32;1.50;;;1.40;;
12970;SDS011;6550;48.650;8.774;2023-11-21T11:02:04;1.30;;;1.20;;
12970;SDS011;6550;48.650;8.774;2023-11-21T11:04:54;1.37;;;1.27;;
12970;SDS011;6550;48.650;8.774;2023-11-21T11:07:25;1.40;;;1.30;;
12970;SDS011;6550;48.650;8.774;2023-11-21T11:09:54;2.63;;;1.60;;
12970;SDS011;6550;48.650;8.774;2023-11-21T11:12:21;1.60;;;1.43;;
12970;SDS011;6550;48.650;8.774;2023-11-21T11:14:54;2.15;;;1.65;;
12970;SDS011;6550;48.650;8.774;2023-11-21T11:17:24;3.23;;;1.70;;
12970;SDS011;6550;48.650;8.774;2023-11-21T11:19:59;1.40;;;1.20;;
12970;SDS011;6550;48.650;8.774;2023-11-21T11:22:41;2.37;;;1.83;;
12970;SDS011;6550;48.650;8.774;2023-11-21T11:28:03;2.30;;;2.03;;
12970;SDS011;6550;48.650;8.774;2023-11-21T11:33:35;1.30;;;1.20;;
12970;SDS011;6550;48.650;8.774;2023-11-21T11:36:10;1.40;;;1.30;;
12970;SDS011;6550;48.650;8.774;2023-11-21T11:38:46;1.30;;;1.20;;
12970;SDS011;6550;48.650;8.774;2023-11-21T11:41:25;2.07;;;1.53;;
12970;SDS011;6550;48.650;8.774;2023-11-21T11:43:53;1.27;;;1.17;;
12970;SDS011;6550;48.650;8.774;2023-11-21T11:46:22;1.30;;;1.20;;
12970;SDS011;6550;48.650;8.774;2023-11-21T11:49:11;1.97;;;1.30;;
12970;SDS011;6550;48.650;8.774;2023-11-21T11:54:58;0.70;;;0.70;;
12970;SDS011;6550;48.650;8.774;2023-11-21T11:57:26;2.00;;;1.10;;
12970;SDS011;6550;48.650;8.774;2023-11-21T12:02:38;0.73;;;0.73;;
12970;SDS011;6550;48.650;8.774;2023-11-21T12:05:09;0.77;;;0.77;;
12970;SDS011;6550;48.650;8.774;2023-11-21T12:10:24;0.80;;;0.80;;
12970;SDS011;6550;48.650;8.774;2023-11-21T12:13:01;1.13;;;1.03;;
12970;SDS011;6550;48.650;8.774;2023-11-21T12:15:39;0.80;;;0.80;;
12970;SDS011;6550;48.650;8.774;2023-11-21T12:18:08;0.80;;;0.80;;
12970;SDS011;6550;48.650;8.774;2023-11-21T12:20:38;0.80;;;0.73;;
12970;SDS011;6550;48.650;8.774;2023-11-21T12:23:11;0.60;;;0.60;;
12970;SDS011;6550;48.650;8.774;2023-11-21T12:25:41;0.80;;;0.80;;
12970;SDS011;6550;48.650;8.774;2023-11-21T12:28:09;0.73;;;0.73;;
12970;SDS011;6550;48.650;8.774;2023-11-21T12:30:41;0.80;;;0.80;;
12970;SDS011;6550;48.650;8.774;2023-11-21T12:33:10;1.23;;;0.85;;
12970;SDS011;6550;48.650;8.774;2023-11-21T12:35:38;0.60;;;0.60;;
12970;SDS011;6550;48.650;8.774;2023-11-21T12:38:05;0.70;;;0.70;;
12970;SDS011;6550;48.650;8.774;2023-11-21T12:40:35;0.80;;;0.80;;
12970;SDS011;6550;48.650;8.774;2023-11-21T12:43:02;0.90;;;0.90;;
12970;SDS011;6550;48.650;8.774;2023-11-21T12:45:36;1.17;;;1.10;;
12970;SDS011;6550;48.650;8.774;2023-11-21T12:48:05;0.77;;;0.77;;
12970;SDS011;6550;48.650;8.774;2023-11-21T12:50:38;0.83;;;0.83;;
12970;SDS011;6550;48.650;8.774;2023-11-21T12:53:06;0.80;;;0.80;;
12970;SDS011;6550;48.650;8.774;2023-11-21T12:55:38;0.97;;;0.97;;
12970;SDS011;6550;48.650;8.774;2023-11-21T12:58:07;1.02;;;1.02;;
12970;SDS011;6550;48.650;8.774;2023-11-21T13:00:47;1.27;;;1.27;;
12970;SDS011;6550;48.650;8.774;2023-11-21T13:03:15;0.90;;;0.90;;
12970;SDS011;6550;48.650;8.774;2023-11-21T13:05:47;2.83;;;0.80;;
12970;SDS011;6550;48.650;8.774;2023-11-21T13:08:21;3.37;;;1.10;;
12970;SDS011;6550;48.650;8.774;2023-11-21T13:10:54;1.40;;;0.93;;
12970;SDS011;6550;48.650;8.774;2023-11-21T13:13:24;1.30;;;1.00;;
12970;SDS011;6550;48.650;8.774;2023-11-21T13:15:59;3.70;;;0.80;;
12970;SDS011;6550;48.650;8.774;2023-11-21T13:18:34;5.77;;;1.00;;
12970;SDS011;6550;48.650;8.774;2023-11-21T13:21:08;2.37;;;0.87;;
12970;SDS011;6550;48.650;8.774;2023-11-21T13:23:41;1.55;;;0.90;;
12970;SDS011;6550;48.650;8.774;2023-11-21T13:26:08;2.37;;;1.00;;
12970;SDS011;6550;48.650;8.774;2023-11-21T13:28:35;1.10;;;1.00;;
12970;SDS011;6550;48.650;8.774;2023-11-21T13:31:04;1.00;;;0.80;;
12970;SDS011;6550;48.650;8.774;2023-11-21T13:33:49;3.43;;;0.93;;
12970;SDS011;6550;48.650;8.774;2023-11-21T13:36:27;2.30;;;0.90;;
12970;SDS011;6550;48.650;8.774;2023-11-21T13:38:59;2.63;;;0.90;;
12970;SDS011;6550;48.650;8.774;2023-11-21T13:41:30;4.03;;;0.83;;
12970;SDS011;6550;48.650;8.774;2023-11-21T13:43:58;1.60;;;1.00;;
12970;SDS011;6550;48.650;8.774;2023-11-21T13:46:40;0.70;;;0.70;;
12970;SDS011;6550;48.650;8.774;2023-11-21T13:49:09;2.40;;;0.90;;
12970;SDS011;6550;48.650;8.774;2023-11-21T13:51:40;1.33;;;0.70;;
12970;SDS011;6550;48.650;8.774;2023-11-21T13:54:11;2.40;;;0.80;;
12970;SDS011;6550;48.650;8.774;2023-11-21T13:56:38;2.40;;;1.13;;
12970;SDS011;6550;48.650;8.774;2023-11-21T13:59:07;2.60;;;1.27;;
12970;SDS011;6550;48.650;8.774;2023-11-21T14:01:49;1.40;;;1.30;;
12970;SDS011;6550;48.650;8.774;2023-11-21T14:04:22;0.93;;;0.60;;
12970;SDS011;6550;48.650;8.774;2023-11-21T14:07:05;1.73;;;0.80;;
12970;SDS011;6550;48.650;8.774;2023-11-21T14:09:49;8.07;;;1.20;;
12970;SDS011;6550;48.650;8.774;2023-11-21T14:12:16;2.90;;;1.30;;
12970;SDS011;6550;48.650;8.774;2023-11-21T14:14:50;2.33;;;0.73;;
12970;SDS011;6550;48.650;8.774;2023-11-21T14:17:17;1.67;;;0.80;;
12970;SDS011;6550;48.650;8.774;2023-11-21T14:19:43;3.53;;;0.80;;
12970;SDS011;6550;48.650;8.774;2023-11-21T14:22:13;3.10;;;0.90;;
12970;SDS011;6550;48.650;8.774;2023-11-21T14:24:40;4.03;;;0.73;;
12970;SDS011;6550;48.650;8.774;2023-11-21T14:27:11;2.10;;;0.50;;
12970;SDS011;6550;48.650;8.774;2023-11-21T14:29:41;38.67;;;2.77;;
12970;SDS011;6550;48.650;8.774;2023-11-21T14:32:11;25.53;;;3.00;;
12970;SDS011;6550;48.650;8.774;2023-11-21T14:34:38;22.23;;;2.73;;
12970;SDS011;6550;48.650;8.774;2023-11-21T14:37:06;27.40;;;2.50;;
12970;SDS011;6550;48.650;8.774;2023-11-21T14:39:40;11.70;;;1.40;;
12970;SDS011;6550;48.650;8.774;2023-11-21T14:42:11;13.55;;;1.73;;
12970;SDS011;6550;48.650;8.774;2023-11-21T14:44:41;7.40;;;1.17;;
12970;SDS011;6550;48.650;8.774;2023-11-21T14:47:11;3.47;;;1.07;;
12970;SDS011;6550;48.650;8.774;2023-11-21T14:49:42;5.50;;;1.20;;
12970;SDS011;6550;48.650;8.774;2023-11-21T14:52:19;3.57;;;0.97;;
12970;SDS011;6550;48.650;8.774;2023-11-21T14:55:04;4.93;;;1.20;;
12970;SDS011;6550;48.650;8.774;2023-11-21T14:57:49;4.20;;;0.83;;
12970;SDS011;6550;48.650;8.774;2023-11-21T15:00:21;3.03;;;0.90;;
12970;SDS011;6550;48.650;8.774;2023-11-21T15:03:01;0.73;;;0.73;;
12970;SDS011;6550;48.650;8.774;2023-11-21T15:05:31;2.95;;;0.95;;
12970;SDS011;6550;48.650;8.774;2023-11-21T15:07:58;2.77;;;1.17;;
12970;SDS011;6550;48.650;8.774;2023-11-21T15:10:35;2.90;;;0.70;;
12970;SDS011;6550;48.650;8.774;2023-11-21T15:13:12;3.50;;;1.20;;
12970;SDS011;6550;48.650;8.774;2023-11-21T15:15:41;4.37;;;0.90;;
12970;SDS011;6550;48.650;8.774;2023-11-21T15:18:09;2.27;;;0.70;;
12970;SDS011;6550;48.650;8.774;2023-11-21T15:20:42;2.07;;;0.63;;
12970;SDS011;6550;48.650;8.774;2023-11-21T15:23:09;2.63;;;0.80;;
12970;SDS011;6550;48.650;8.774;2023-11-21T15:25:38;2.57;;;1.00;;
12970;SDS011;6550;48.650;8.774;2023-11-21T15:28:05;0.83;;;0.57;;
12970;SDS011;6550;48.650;8.774;2023-11-21T15:30:32;0.57;;;0.53;;